Terminal Aerodrome Forecast
Issued by NWS

Home | Current Version | Previous Version | Text Only | Print | Product List | Glossary On
Versions: 1 2 3 4 5 6 7 8 9 10 11 12 13 14 15 16 17 18 19 20 21 22 23 24 25 26
000
FTUS43 KDLH 231137
TAFBRD
TAF
KBRD 231137Z 2312/2412 18012G21KT P6SM VCSH SCT040 BKN080
      TEMPO 2312/2313 6SM -TSRA BKN050CB
     FM231800 19012G20KT 6SM -TSRA SCT015 BKN040CB
      TEMPO 2318/2321 3SM TSRA SCT010 BKN020CB
     FM232100 19011KT P6SM VCTS SCT025 BKN050CB
     FM240000 19008KT P6SM BKN050
     FM240400 21003KT P6SM SCT050
      TEMPO 2408/2412 2SM BR=

USA.gov is the U.S. government's official web portal to all federal, state and local government web resources and services.